createdAt,value
2023-12-22T00:05:04.568Z,79.4
2023-12-22T00:11:03.916Z,80.3
2023-12-22T00:17:03.800Z,77.3
2023-12-22T00:29:03.843Z,79.9
2023-12-22T00:35:03.777Z,81.2
2023-12-22T00:41:03.585Z,80.5
2023-12-22T00:47:03.474Z,80.9
2023-12-22T00:53:03.374Z,80.8
2023-12-22T00:59:11.125Z,80.4
2023-12-22T01:05:04.480Z,81
2023-12-22T01:11:03.531Z,81.6
2023-12-22T01:17:03.937Z,81.4
2023-12-22T01:23:03.502Z,81.3
2023-12-22T01:29:03.385Z,80.7
2023-12-22T01:41:03.829Z,80.6
2023-12-22T01:53:04.238Z,80.7
2023-12-22T01:59:03.514Z,80.4
2023-12-22T02:05:04.434Z,79.7
2023-12-22T02:11:04.098Z,81
2023-12-22T02:17:04.146Z,81
2023-12-22T02:23:03.869Z,81.3
2023-12-22T02:29:03.626Z,81.2
2023-12-22T02:41:04.007Z,80.9
2023-12-22T02:47:04.084Z,80.8
2023-12-22T02:53:03.744Z,80.7
2023-12-22T02:59:04.274Z,80.2
2023-12-22T03:11:04.142Z,80.7
2023-12-22T03:17:04.143Z,81.1
2023-12-22T03:23:04.861Z,81.6
2023-12-22T03:29:03.723Z,80.4
2023-12-22T03:41:04.018Z,80.5
2023-12-22T03:47:04.762Z,80.8
2023-12-22T03:53:04.223Z,80.6
2023-12-22T03:59:04.172Z,80.2
2023-12-22T04:05:05.386Z,79.9
2023-12-22T04:17:04.436Z,78.7
2023-12-22T04:23:03.705Z,76.5
2023-12-22T04:29:04.179Z,75.1
2023-12-22T04:35:05.912Z,75.3
2023-12-22T04:41:03.803Z,75.2
2023-12-22T04:53:04.098Z,75.3
2023-12-22T04:59:04.630Z,75.6
2023-12-22T05:05:06.044Z,76.1
2023-12-22T05:11:03.865Z,75.9
2023-12-22T05:17:04.340Z,76.2
2023-12-22T05:23:04.551Z,76.3
2023-12-22T05:29:04.539Z,76.9
2023-12-22T05:35:05.725Z,76.9
2023-12-22T05:41:04.391Z,76.1
2023-12-22T05:53:04.696Z,74.2
2023-12-22T05:59:04.502Z,74.2
2023-12-22T06:05:05.469Z,74
2023-12-22T06:11:04.609Z,73.4
2023-12-22T06:23:04.237Z,72.3
2023-12-22T06:29:05.596Z,72.1
2023-12-22T06:41:04.197Z,71.4
2023-12-22T06:47:04.442Z,71.9
2023-12-22T06:53:13.416Z,72
2023-12-22T06:59:04.947Z,73.2
2023-12-22T07:05:05.754Z,73.2
2023-12-22T07:11:05.292Z,74.3
2023-12-22T07:17:04.128Z,70.8
2023-12-22T07:23:04.101Z,74.8
2023-12-22T07:29:04.256Z,77.5
2023-12-22T07:35:05.958Z,79.5
2023-12-22T07:41:05.249Z,79.7
2023-12-22T07:47:04.677Z,79.5
2023-12-22T07:53:07.387Z,80.1
2023-12-22T07:59:13.670Z,80
2023-12-22T08:05:06.300Z,80.3
2023-12-22T08:11:04.406Z,81.2
2023-12-22T08:17:04.742Z,81.7
2023-12-22T08:23:07.651Z,81.9
2023-12-22T08:29:04.438Z,81.5
2023-12-22T08:35:09.088Z,83.6
2023-12-22T08:41:06.304Z,83.2
2023-12-22T08:47:04.545Z,82.2
2023-12-22T08:53:04.183Z,80.2
2023-12-22T08:59:04.712Z,80
2023-12-22T09:05:06.187Z,79
2023-12-22T09:11:04.444Z,78.6
2023-12-22T09:17:04.357Z,78
2023-12-22T09:23:04.163Z,78
2023-12-22T09:29:05.008Z,77.6
2023-12-22T09:41:04.873Z,76.9
2023-12-22T09:47:04.311Z,76.9
2023-12-22T09:53:06.181Z,77
2023-12-22T09:59:04.309Z,77.3
2023-12-22T10:11:04.482Z,77.5
2023-12-22T10:17:04.944Z,77.3
2023-12-22T10:23:04.299Z,77.6
2023-12-22T10:29:04.321Z,77.2
2023-12-22T10:41:04.575Z,78.6
2023-12-22T10:47:04.607Z,79.7
2023-12-22T10:53:04.744Z,80.7
2023-12-22T10:59:05.065Z,80.3
2023-12-22T11:17:04.718Z,83
2023-12-22T11:23:06.742Z,83
2023-12-22T11:29:04.867Z,83.1
2023-12-22T11:35:06.566Z,82.9
2023-12-22T11:41:04.577Z,82.9
2023-12-22T11:53:05.287Z,82.4
2023-12-22T11:59:04.412Z,82.6
2023-12-22T12:05:07.261Z,82.6
2023-12-22T12:11:05.145Z,84.6
2023-12-22T12:17:05.438Z,84.6
2023-12-22T12:23:06.107Z,83.7
2023-12-22T12:29:04.528Z,83.7
2023-12-22T12:35:06.057Z,83.5
2023-12-22T12:41:04.786Z,82.5
2023-12-22T12:47:05.506Z,82.2
2023-12-22T12:53:05.795Z,81.1
2023-12-22T12:59:05.902Z,80.5
2023-12-22T13:05:06.802Z,80
2023-12-22T13:11:04.830Z,80.2
2023-12-22T13:17:05.147Z,79.7
2023-12-22T13:23:06.695Z,79.1
2023-12-22T13:35:06.623Z,79.5
2023-12-22T13:41:05.057Z,79.8
2023-12-22T13:47:05.689Z,80.9
2023-12-22T13:53:06.772Z,80.9
2023-12-22T13:59:05.149Z,81.1
2023-12-22T14:05:05.630Z,80.5
2023-12-22T14:11:05.139Z,80.3
2023-12-22T14:17:05.623Z,80.1
2023-12-22T14:23:05.487Z,80.2
2023-12-22T14:29:05.506Z,79.9
2023-12-22T14:35:06.986Z,79.9
2023-12-22T14:47:05.492Z,80.7
2023-12-22T14:53:06.030Z,79.9
2023-12-22T14:59:05.541Z,80.2
2023-12-22T15:05:07.069Z,80
2023-12-22T15:11:05.126Z,79.3
2023-12-22T15:23:05.761Z,79.6
2023-12-22T15:29:04.807Z,79.9
2023-12-22T15:35:06.870Z,80.8
2023-12-22T15:41:05.477Z,80.8
2023-12-22T15:47:06.149Z,80.9
2023-12-22T15:53:05.724Z,81.1
2023-12-22T15:59:05.636Z,81.9
2023-12-22T16:05:07.218Z,81.8
2023-12-22T16:11:06.286Z,81.7
2023-12-22T16:17:05.968Z,81
2023-12-22T16:23:05.285Z,81.3
2023-12-22T16:29:06.209Z,81.5
2023-12-22T16:35:07.385Z,81.1
2023-12-22T16:41:05.755Z,82.3
2023-12-22T16:47:05.699Z,82.1
2023-12-22T17:05:14.001Z,81.4
2023-12-22T17:11:04.936Z,81.2
2023-12-22T17:17:05.619Z,80.9
2023-12-22T17:23:05.125Z,80.8
2023-12-22T17:29:05.025Z,80.4
2023-12-22T17:41:05.208Z,80.9
2023-12-22T17:47:06.466Z,80.9
2023-12-22T17:53:05.089Z,80.5
2023-12-22T17:59:05.960Z,80.6
2023-12-22T18:05:07.121Z,80.5
2023-12-22T18:11:05.889Z,80.2
2023-12-22T18:17:05.451Z,81.1
2023-12-22T18:29:04.905Z,79.9
2023-12-22T18:35:07.197Z,79.5
2023-12-22T18:41:05.733Z,79.8
2023-12-22T18:47:06.651Z,80.9
2023-12-22T18:53:05.960Z,80.4
2023-12-22T18:59:06.091Z,79.9
2023-12-22T19:05:06.483Z,80.1
2023-12-22T19:11:06.982Z,80.2
2023-12-22T19:17:06.484Z,80.2
2023-12-22T19:23:05.576Z,79.4
2023-12-22T19:29:05.527Z,78.4
2023-12-22T19:35:07.016Z,77.7
2023-12-22T19:41:05.748Z,77.5
2023-12-22T19:47:05.289Z,77.7
2023-12-22T19:59:05.382Z,77.7
2023-12-22T20:05:08.841Z,77.1
2023-12-22T20:11:05.610Z,76.1
2023-12-22T20:17:05.940Z,75.8
2023-12-22T20:23:07.461Z,74.4
2023-12-22T20:35:06.958Z,73.5
2023-12-22T20:41:05.735Z,72.7
2023-12-22T20:47:06.396Z,72.4
2023-12-22T20:53:05.161Z,72.3
2023-12-22T20:59:05.287Z,72.4
2023-12-22T21:11:05.459Z,73.2
2023-12-22T21:17:05.697Z,73.2
2023-12-22T21:23:14.543Z,72.9
2023-12-22T21:29:05.909Z,72.7
2023-12-22T21:35:06.682Z,72.3
2023-12-22T21:41:05.863Z,72.6
2023-12-22T21:47:05.920Z,72.2
2023-12-22T21:53:06.456Z,73.8
2023-12-22T21:59:06.472Z,74.3
2023-12-22T22:05:08.168Z,76.3
2023-12-22T22:11:05.931Z,80
2023-12-22T22:23:06.331Z,82.3
2023-12-22T22:29:05.485Z,81.3
2023-12-22T22:35:07.428Z,81.2
2023-12-22T22:47:05.604Z,80.6
2023-12-22T22:53:05.454Z,80.7
2023-12-22T22:59:06.080Z,81.2
2023-12-22T23:11:06.071Z,81.1
2023-12-22T23:17:05.486Z,80.8
2023-12-22T23:23:06.299Z,81.2
2023-12-22T23:29:05.988Z,81.2
2023-12-22T23:35:08.191Z,81
2023-12-22T23:41:06.046Z,80.7
2023-12-22T23:47:05.800Z,80.4
2023-12-22T23:53:05.971Z,81
2023-12-22T23:59:05.617Z,81.6
